createdAt,value
2018-04-11T00:01:30.892Z,96931.66
2018-04-11T00:03:58.544Z,96928.08
2018-04-11T00:06:26.279Z,96925.31
2018-04-11T00:08:54.181Z,96911.38
2018-04-11T00:11:21.807Z,96920.50
2018-04-11T00:13:49.436Z,96921.94
2018-04-11T00:16:17.093Z,96924.93
2018-04-11T00:18:44.715Z,96927.05
2018-04-11T00:21:12.373Z,96925.43
2018-04-11T00:23:39.999Z,96922.34
2018-04-11T00:26:07.934Z,96924.38
2018-04-11T00:28:35.669Z,96922.69
2018-04-11T00:31:03.296Z,96924.20
2018-04-11T00:33:30.944Z,96925.28
2018-04-11T00:35:58.577Z,96927.88
2018-04-11T00:38:26.215Z,96931.63
2018-04-11T00:40:53.834Z,96934.39
2018-04-11T00:43:21.497Z,96937.59
2018-04-11T00:45:49.145Z,96934.16
2018-04-11T00:48:16.771Z,96925.39
2018-04-11T00:50:44.435Z,96926.06
2018-04-11T00:53:32.022Z,96924.72
2018-04-11T00:55:59.687Z,96925.41
2018-04-11T00:58:27.323Z,96925.62
2018-04-11T01:00:55.358Z,96924.09
2018-04-11T01:03:22.983Z,96933.16
2018-04-11T01:05:50.604Z,96941.88
2018-04-11T01:08:18.252Z,96930.22
2018-04-11T01:10:45.867Z,96933.89
2018-04-11T01:13:13.510Z,96935.56
2018-04-11T01:15:41.279Z,96937.99
2018-04-11T01:18:08.907Z,96952.77
2018-04-11T01:20:36.556Z,96947.60
2018-04-11T01:23:04.180Z,96953.57
2018-04-11T01:25:31.828Z,96963.86
2018-04-11T01:27:59.529Z,96965.27
2018-04-11T01:30:27.207Z,96963.52
2018-04-11T01:32:54.823Z,96967.23
2018-04-11T01:35:22.456Z,96972.62
2018-04-11T01:37:50.099Z,96981.86
2018-04-11T01:40:17.723Z,96984.92
2018-04-11T01:42:45.387Z,96992.92
2018-04-11T01:45:13.015Z,97000.27
2018-04-11T01:47:40.859Z,97003.85
2018-04-11T01:50:08.475Z,97007.50
2018-04-11T01:52:36.107Z,97010.00
2018-04-11T01:55:03.763Z,97005.63
2018-04-11T01:57:31.388Z,97006.22
2018-04-11T01:59:59.043Z,97015.39
2018-04-11T02:02:26.667Z,97008.72
2018-04-11T02:04:54.585Z,97010.09
2018-04-11T02:07:22.216Z,97016.84
2018-04-11T02:09:49.850Z,97025.37
2018-04-11T02:12:17.523Z,97024.97
2018-04-11T02:14:45.219Z,97031.55
2018-04-11T02:17:12.871Z,97024.25
2018-04-11T02:19:40.499Z,97021.32
2018-04-11T02:22:08.163Z,97025.89
2018-04-11T02:24:35.799Z,97023.09
2018-04-11T02:27:03.429Z,97024.70
2018-04-11T02:29:31.083Z,97026.52
2018-04-11T02:31:58.719Z,97024.97
2018-04-11T02:34:26.397Z,97030.53
2018-04-11T02:36:54.037Z,97026.21
2018-04-11T02:39:21.707Z,97028.33
2018-04-11T02:41:49.340Z,97024.70
2018-04-11T02:44:16.967Z,97021.55
2018-04-11T02:46:44.620Z,97019.33
2018-04-11T02:49:12.252Z,97013.02
2018-04-11T02:51:39.916Z,97013.98
2018-04-11T02:54:07.547Z,97018.09
2018-04-11T02:56:35.491Z,97017.33
2018-04-11T02:59:03.127Z,97018.45
2018-04-11T03:01:30.756Z,97016.21
2018-04-11T03:03:58.424Z,97015.33
2018-04-11T03:06:26.132Z,97010.45
2018-04-11T03:08:53.791Z,97008.08
2018-04-11T03:11:21.454Z,97008.39
2018-04-11T03:13:49.120Z,97013.56
2018-04-11T03:16:16.742Z,97019.50
2018-04-11T03:18:44.383Z,97011.70
2018-04-11T03:21:12.607Z,97011.45
2018-04-11T03:23:40.290Z,97014.64
2018-04-11T03:26:07.943Z,97016.74
2018-04-11T03:28:35.580Z,97017.95
2018-04-11T03:31:03.256Z,97018.00
2018-04-11T03:33:30.893Z,97019.91
2018-04-11T03:35:58.540Z,97022.97
2018-04-11T03:38:26.253Z,97016.61
2018-04-11T03:40:53.874Z,97026.22
2018-04-11T03:43:21.531Z,97023.03
2018-04-11T03:45:49.238Z,97019.41
2018-04-11T03:48:17.014Z,97022.57
2018-04-11T03:50:44.644Z,97019.02
2018-04-11T03:53:12.280Z,97020.63
2018-04-11T03:55:39.950Z,97022.34
2018-04-11T03:58:07.579Z,97015.42
2018-04-11T04:00:35.236Z,97013.84
2018-04-11T04:03:02.867Z,97012.26
2018-04-11T04:05:30.524Z,97010.81
2018-04-11T04:07:58.154Z,97012.72
2018-04-11T04:10:25.829Z,97014.88
2018-04-11T04:12:53.459Z,97016.09
2018-04-11T04:15:32.835Z,97012.73
2018-04-11T04:18:12.198Z,97009.54
2018-04-11T04:20:40.198Z,97010.52
2018-04-11T04:23:07.824Z,97011.42
2018-04-11T04:25:35.463Z,97012.16
2018-04-11T04:28:03.125Z,97012.80
2018-04-11T04:30:30.771Z,97017.23
2018-04-11T04:32:58.437Z,97025.70
2018-04-11T04:35:26.070Z,97030.83
2018-04-11T04:37:53.924Z,97024.45
2018-04-11T04:40:21.561Z,97019.88
2018-04-11T04:42:49.200Z,97013.21
2018-04-11T04:45:16.852Z,97023.20
2018-04-11T04:47:44.489Z,97027.27
2018-04-11T04:50:12.137Z,97030.92
2018-04-11T04:52:39.774Z,97026.36
2018-04-11T04:55:07.446Z,97031.52
2018-04-11T04:57:35.082Z,97034.31
2018-04-11T05:00:02.989Z,97031.22
2018-04-11T05:02:30.633Z,97026.36
2018-04-11T05:04:58.272Z,97027.80
2018-04-11T05:07:25.959Z,97025.66
2018-04-11T05:09:53.590Z,97032.11
2018-04-11T05:12:21.242Z,97030.27
2018-04-11T05:14:48.951Z,97031.29
2018-04-11T05:17:16.871Z,97022.97
2018-04-11T05:19:44.546Z,97030.80
2018-04-11T05:22:12.180Z,97031.85
2018-04-11T05:24:39.848Z,97044.29
2018-04-11T05:27:07.476Z,97039.52
2018-04-11T05:29:35.151Z,97043.40
2018-04-11T05:32:02.815Z,97045.77
2018-04-11T05:34:30.976Z,97053.92
2018-04-11T05:36:58.663Z,97049.32
2018-04-11T05:39:26.298Z,97058.44
2018-04-11T05:41:54.052Z,97046.45
2018-04-11T05:44:21.688Z,97056.06
2018-04-11T05:46:49.599Z,97055.91
2018-04-11T05:49:17.226Z,97058.44
2018-04-11T05:51:44.856Z,97056.59
2018-04-11T05:54:12.505Z,97062.11
2018-04-11T05:56:40.187Z,97053.25
2018-04-11T05:59:08.031Z,97054.55
2018-04-11T06:01:35.761Z,97058.23
2018-04-11T06:04:03.388Z,97060.88
2018-04-11T06:06:31.043Z,97056.25
2018-04-11T06:08:58.683Z,97064.30
2018-04-11T06:11:26.412Z,97063.40
2018-04-11T06:13:54.042Z,97064.75
2018-04-11T06:16:21.942Z,97063.05
2018-04-11T06:18:49.579Z,97056.53
2018-04-11T06:21:17.221Z,97060.34
2018-04-11T06:23:44.876Z,97050.77
2018-04-11T06:26:12.507Z,97053.34
2018-04-11T06:28:40.159Z,97040.71
2018-04-11T06:31:07.783Z,97047.84
2018-04-11T06:33:35.803Z,97044.78
2018-04-11T06:36:03.452Z,97047.55
2018-04-11T06:38:31.106Z,97050.88
2018-04-11T06:40:58.761Z,97055.62
2018-04-11T06:43:26.397Z,97054.05
2018-04-11T06:45:54.050Z,97052.00
2018-04-11T06:48:21.687Z,97048.90
2018-04-11T06:50:49.748Z,97043.40
2018-04-11T06:53:17.377Z,97049.64
2018-04-11T06:55:45.000Z,97051.02
2018-04-11T06:58:12.676Z,97045.04
2018-04-11T07:00:40.316Z,97045.23
2018-04-11T07:03:07.980Z,97046.70
2018-04-11T07:05:35.630Z,97050.38
2018-04-11T07:08:03.448Z,97048.74
2018-04-11T07:10:31.220Z,97037.72
2018-04-11T07:12:58.852Z,97046.86
2018-04-11T07:15:26.510Z,97044.70
2018-04-11T07:17:54.209Z,97040.05
2018-04-11T07:20:21.899Z,97043.00
2018-04-11T07:22:49.529Z,97040.79
2018-04-11T07:25:17.198Z,97047.62
2018-04-11T07:27:44.827Z,97046.12
2018-04-11T07:30:12.505Z,97052.91
2018-04-11T07:32:40.147Z,97053.58
2018-04-11T07:35:08.357Z,97053.06
2018-04-11T07:37:36.099Z,97054.13
2018-04-11T07:40:03.910Z,97054.08
2018-04-11T07:42:31.875Z,97051.53
2018-04-11T07:44:59.836Z,97053.63
2018-04-11T07:47:29.809Z,97046.78
2018-04-11T07:49:57.845Z,97049.28
2018-04-11T07:52:25.652Z,97048.44
2018-04-11T07:54:53.300Z,97047.36
2018-04-11T07:57:20.920Z,97043.73
2018-04-11T07:59:48.559Z,97040.05
2018-04-11T08:02:16.196Z,97038.55
2018-04-11T08:04:44.023Z,97035.40
2018-04-11T08:07:11.883Z,97038.38
2018-04-11T08:09:40.045Z,97045.55
2018-04-11T08:12:08.030Z,97043.92
2018-04-11T08:14:35.664Z,97051.55
2018-04-11T08:17:03.581Z,97050.97
2018-04-11T08:19:31.243Z,97054.42
2018-04-11T08:22:03.960Z,97055.17
2018-04-11T08:24:34.178Z,97053.98
2018-04-11T08:27:02.490Z,97054.77
2018-04-11T08:29:30.207Z,97050.08
2018-04-11T08:32:02.296Z,97050.08
2018-04-11T08:34:36.455Z,97049.78
2018-04-11T08:37:10.653Z,97050.50
2018-04-11T08:39:41.538Z,97054.28
2018-04-11T08:42:10.189Z,97049.73
2018-04-11T08:44:38.695Z,97057.26
2018-04-11T08:47:08.343Z,97057.62
2018-04-11T08:49:38.178Z,97058.52
2018-04-11T08:52:08.021Z,97062.31
2018-04-11T08:54:36.998Z,97062.77
2018-04-11T08:57:05.161Z,97064.92
2018-04-11T08:59:38.112Z,97066.22
2018-04-11T09:02:11.878Z,97062.03
2018-04-11T09:04:44.343Z,97060.14
2018-04-11T09:07:18.273Z,97071.98
2018-04-11T09:09:54.512Z,97065.98
2018-04-11T09:12:25.010Z,97070.09
2018-04-11T09:14:59.782Z,97071.28
2018-04-11T09:17:36.096Z,97066.31
2018-04-11T09:20:08.305Z,97067.27
2018-04-11T09:22:39.212Z,97076.99
2018-04-11T09:25:07.187Z,97073.31
2018-04-11T09:27:35.058Z,97072.17
2018-04-11T09:30:08.470Z,97076.73
2018-04-11T09:32:37.690Z,97076.71
2018-04-11T09:35:07.144Z,97070.62
2018-04-11T09:37:36.690Z,97069.08
2018-04-11T09:40:04.981Z,97069.80
2018-04-11T09:42:33.351Z,97067.48
2018-04-11T09:45:01.514Z,97068.41
2018-04-11T09:47:29.183Z,97066.73
2018-04-11T09:50:02.818Z,97063.73
2018-04-11T09:52:31.932Z,97068.84
2018-04-11T09:55:00.574Z,97073.02
2018-04-11T09:57:28.215Z,97072.16
2018-04-11T09:59:55.851Z,97072.33
2018-04-11T10:02:24.321Z,97073.17
2018-04-11T10:04:52.027Z,97067.12
2018-04-11T10:07:19.651Z,97060.31
2018-04-11T10:09:47.483Z,97058.89
2018-04-11T10:12:15.493Z,97058.63
2018-04-11T10:14:43.539Z,97058.69
2018-04-11T10:17:14.802Z,97048.68
2018-04-11T10:19:42.907Z,97044.25
2018-04-11T10:22:10.552Z,97041.69
2018-04-11T10:24:38.307Z,97034.30
2018-04-11T10:27:05.962Z,97036.98
2018-04-11T10:29:33.596Z,97041.80
2018-04-11T10:32:01.317Z,97039.13
2018-04-11T10:34:28.995Z,97037.41
2018-04-11T10:36:56.625Z,97036.91
2018-04-11T10:39:24.371Z,97036.28
2018-04-11T10:41:51.998Z,97025.07
2018-04-11T10:44:19.637Z,97027.84
2018-04-11T10:46:47.282Z,97018.75
2018-04-11T10:49:14.939Z,97022.84
2018-04-11T10:51:42.583Z,97022.38
2018-04-11T10:54:10.199Z,97019.05
2018-04-11T10:56:37.835Z,97011.28
2018-04-11T10:59:05.455Z,97016.73
2018-04-11T11:01:33.135Z,97015.48
2018-04-11T11:04:00.763Z,97007.81
2018-04-11T11:06:28.394Z,97009.55
2018-04-11T11:08:56.033Z,97017.56
2018-04-11T11:11:23.683Z,97014.41
2018-04-11T11:13:51.327Z,97007.44
2018-04-11T11:16:20.211Z,97000.05
2018-04-11T11:18:47.942Z,97001.66
2018-04-11T11:21:15.628Z,96987.58
2018-04-11T11:23:43.668Z,96992.41
2018-04-11T11:26:11.670Z,96991.23
2018-04-11T11:28:39.290Z,96984.48
2018-04-11T11:31:06.937Z,96978.78
2018-04-11T11:33:34.586Z,96981.18
2018-04-11T11:36:02.504Z,96977.23
2018-04-11T11:38:30.171Z,96967.45
2018-04-11T11:40:57.795Z,96968.98
2018-04-11T11:43:25.441Z,96969.99
2018-04-11T11:45:53.121Z,96970.26
2018-04-11T11:48:20.787Z,96968.42
2018-04-11T11:50:48.689Z,96956.21
2018-04-11T11:53:16.698Z,96965.14
2018-04-11T11:55:44.742Z,96969.94
2018-04-11T11:58:12.354Z,96966.17
2018-04-11T12:00:40.205Z,96965.48
2018-04-11T12:03:07.823Z,96964.05
2018-04-11T12:05:35.451Z,96959.06
2018-04-11T12:08:03.087Z,96957.69
2018-04-11T12:10:30.755Z,96955.38
2018-04-11T12:12:58.420Z,96951.86
2018-04-11T12:15:26.044Z,96947.94
2018-04-11T12:17:53.679Z,96935.59
2018-04-11T12:20:21.319Z,96933.06
2018-04-11T12:22:48.957Z,96937.34
2018-04-11T12:25:18.430Z,96933.38
2018-04-11T12:27:46.523Z,96935.56
2018-04-11T12:30:14.156Z,96919.64
2018-04-11T12:32:41.795Z,96920.95
2018-04-11T12:35:09.542Z,96916.02
2018-04-11T12:37:37.279Z,96915.70
2018-04-11T12:40:04.907Z,96917.27
2018-04-11T12:42:32.535Z,96918.83
2018-04-11T12:45:00.185Z,96914.17
2018-04-11T12:47:27.803Z,96916.64
2018-04-11T12:49:55.808Z,96909.48
2018-04-11T12:52:23.433Z,96913.55
2018-04-11T12:54:51.522Z,96908.31
2018-04-11T12:57:19.488Z,96904.84
2018-04-11T12:59:47.456Z,96901.31
2018-04-11T13:02:15.531Z,96906.89
2018-04-11T13:04:43.259Z,96903.41
2018-04-11T13:07:11.353Z,96905.19
2018-04-11T13:09:39.126Z,96913.06
2018-04-11T13:12:06.968Z,96908.70
2018-04-11T13:14:35.113Z,96908.66
2018-04-11T13:17:03.136Z,96910.00
2018-04-11T13:19:31.011Z,96906.53
2018-04-11T13:21:58.873Z,96903.64
2018-04-11T13:24:26.891Z,96903.67
2018-04-11T13:26:54.729Z,96910.48
2018-04-11T13:29:22.779Z,96901.86
2018-04-11T13:31:50.650Z,96895.97
2018-04-11T13:34:19.548Z,96893.09
2018-04-11T13:36:48.519Z,96879.66
2018-04-11T13:39:16.140Z,96887.10
2018-04-11T13:41:43.786Z,96891.67
2018-04-11T13:44:11.411Z,96887.18
2018-04-11T13:46:39.784Z,96887.36
2018-04-11T13:49:07.425Z,96881.93
2018-04-11T13:51:35.215Z,96882.75
2018-04-11T13:54:03.311Z,96875.59
2018-04-11T13:56:31.380Z,96874.19
2018-04-11T13:59:01.451Z,96878.38
2018-04-11T14:01:29.802Z,96878.88
2018-04-11T14:03:57.462Z,96879.12
2018-04-11T14:06:25.100Z,96881.38
2018-04-11T14:08:52.724Z,96876.19
2018-04-11T14:11:21.526Z,96871.93
2018-04-11T14:13:49.696Z,96873.52
2018-04-11T14:16:17.360Z,96873.90
2018-04-11T14:18:44.991Z,96875.86
2018-04-11T14:21:12.859Z,96880.15
2018-04-11T14:23:40.776Z,96873.36
2018-04-11T14:26:08.853Z,96867.99
2018-04-11T14:28:37.024Z,96869.66
2018-04-11T14:31:04.840Z,96861.40
2018-04-11T14:33:32.494Z,96865.25
2018-04-11T14:36:00.167Z,96873.31
2018-04-11T14:38:27.864Z,96863.16
2018-04-11T14:40:55.527Z,96870.02
2018-04-11T14:43:23.153Z,96868.50
2018-04-11T14:45:50.852Z,96866.54
2018-04-11T14:48:18.503Z,96861.81
2018-04-11T14:50:46.177Z,96867.14
2018-04-11T14:53:13.847Z,96862.41
2018-04-11T14:55:42.028Z,96857.42
2018-04-11T14:58:10.007Z,96862.45
2018-04-11T15:00:37.623Z,96865.17
2018-04-11T15:03:05.682Z,96862.47
2018-04-11T15:05:33.534Z,96855.01
2018-04-11T15:08:01.187Z,96854.86
2018-04-11T15:10:28.807Z,96848.58
2018-04-11T15:12:56.672Z,96841.20
2018-04-11T15:15:24.482Z,96842.97
2018-04-11T15:17:52.565Z,96842.91
2018-04-11T15:20:20.226Z,96842.27
2018-04-11T15:22:47.873Z,96842.02
2018-04-11T15:25:15.822Z,96837.28
2018-04-11T15:27:43.898Z,96842.94
2018-04-11T15:30:17.002Z,96839.43
2018-04-11T15:32:45.051Z,96833.38
2018-04-11T15:35:12.668Z,96830.45
2018-04-11T15:37:40.326Z,96833.45
2018-04-11T15:40:07.942Z,96824.55
2018-04-11T15:42:35.697Z,96825.25
2018-04-11T15:45:03.313Z,96816.78
2018-04-11T15:47:30.974Z,96825.38
2018-04-11T15:49:58.624Z,96817.39
2018-04-11T15:52:26.552Z,96814.97
2018-04-11T15:54:54.164Z,96809.56
2018-04-11T15:57:21.780Z,96804.34
2018-04-11T15:59:49.428Z,96811.62
2018-04-11T16:02:17.063Z,96807.14
2018-04-11T16:04:44.707Z,96804.32
2018-04-11T16:07:12.433Z,96797.77
2018-04-11T16:09:40.118Z,96795.95
2018-04-11T16:12:07.765Z,96789.11
2018-04-11T16:14:35.514Z,96788.55
2018-04-11T16:17:03.154Z,96790.89
2018-04-11T16:19:30.771Z,96793.09
2018-04-11T16:21:58.410Z,96795.52
2018-04-11T16:24:26.035Z,96783.80
2018-04-11T16:26:54.161Z,96786.92
2018-04-11T16:29:21.780Z,96787.89
2018-04-11T16:31:49.424Z,96788.73
2018-04-11T16:34:17.118Z,96786.73
2018-04-11T16:36:44.739Z,96784.39
2018-04-11T16:39:12.393Z,96784.98
2018-04-11T16:41:40.009Z,96781.30
2018-04-11T16:44:07.653Z,96777.16
2018-04-11T16:46:35.279Z,96780.05
2018-04-11T16:49:02.927Z,96778.74
2018-04-11T16:51:30.551Z,96777.37
2018-04-11T16:53:58.267Z,96786.96
2018-04-11T16:56:25.891Z,96773.66
2018-04-11T16:58:53.543Z,96783.88
2018-04-11T17:01:21.168Z,96775.67
2018-04-11T17:03:48.843Z,96777.23
2018-04-11T17:06:16.465Z,96774.70
2018-04-11T17:08:44.087Z,96773.14
2018-04-11T17:11:12.039Z,96771.34
2018-04-11T17:13:39.672Z,96774.52
2018-04-11T17:16:07.340Z,96778.16
2018-04-11T17:18:34.958Z,96769.91
2018-04-11T17:24:20.081Z,96767.69
2018-04-11T17:26:59.554Z,96774.70
2018-04-11T17:29:39.120Z,96764.75
2018-04-11T17:32:06.767Z,96763.97
2018-04-11T17:34:34.357Z,96766.66
2018-04-11T17:37:01.939Z,96762.92
2018-04-11T17:39:29.559Z,96764.43
2018-04-11T17:41:57.154Z,96774.19
2018-04-11T17:44:24.766Z,96769.61
2018-04-11T17:46:52.389Z,96766.28
2018-04-11T17:49:22.252Z,96775.00
2018-04-11T17:51:49.838Z,96769.21
2018-04-11T17:54:17.437Z,96776.58
2018-04-11T17:56:45.133Z,96780.17
2018-04-11T17:59:12.725Z,96775.28
2018-04-11T18:01:40.353Z,96778.12
2018-04-11T18:04:07.955Z,96785.55
2018-04-11T18:06:35.895Z,96780.20
2018-04-11T18:09:03.514Z,96780.31
2018-04-11T18:11:31.119Z,96778.21
2018-04-11T18:13:58.753Z,96786.48
2018-04-11T18:16:26.346Z,96780.81
2018-04-11T18:18:54.095Z,96783.25
2018-04-11T18:21:21.693Z,96785.92
2018-04-11T18:23:49.530Z,96782.56
2018-04-11T18:26:17.128Z,96780.98
2018-04-11T18:28:44.964Z,96773.28
2018-04-11T18:31:12.582Z,96777.67
2018-04-11T18:33:40.170Z,96778.14
2018-04-11T18:36:07.798Z,96776.17
2018-04-11T18:38:35.395Z,96776.17
2018-04-11T18:41:03.023Z,96773.31
2018-04-11T18:43:30.609Z,96768.95
2018-04-11T18:45:58.227Z,96765.43
2018-04-11T18:48:25.853Z,96761.30
2018-04-11T18:50:53.443Z,96762.66
2018-04-11T18:53:21.080Z,96760.75
2018-04-11T18:55:48.689Z,96758.21
2018-04-11T18:58:16.415Z,96755.53
2018-04-11T19:00:44.032Z,96752.67
2018-04-11T19:03:11.628Z,96750.55
2018-04-11T19:05:39.259Z,96749.33
2018-04-11T19:08:06.845Z,96752.16
2018-04-11T19:10:34.465Z,96750.28
2018-04-11T19:13:02.111Z,96750.53
2018-04-11T19:15:29.719Z,96747.83
2018-04-11T19:17:57.327Z,96751.58
2018-04-11T19:20:24.938Z,96748.34
2018-04-11T19:22:52.559Z,96740.08
2018-04-11T19:25:20.151Z,96741.98
2018-04-11T19:27:47.766Z,96737.49
2018-04-11T19:30:15.388Z,96738.93
2018-04-11T19:32:43.262Z,96737.23
2018-04-11T19:35:10.853Z,96733.49
2018-04-11T19:37:38.462Z,96739.01
2018-04-11T19:40:06.076Z,96740.96
2018-04-11T19:42:33.674Z,96735.62
2018-04-11T19:45:01.289Z,96734.09
2018-04-11T19:47:28.892Z,96727.48
2018-04-11T19:49:56.944Z,96725.73
2018-04-11T19:52:24.509Z,96721.73
2018-04-11T19:54:52.101Z,96723.31
2018-04-11T19:57:19.716Z,96717.98
2018-04-11T19:59:47.309Z,96718.56
2018-04-11T20:02:14.929Z,96722.63
2018-04-11T20:04:42.515Z,96717.88
2018-04-11T20:07:10.177Z,96716.78
2018-04-11T20:09:37.795Z,96716.97
2018-04-11T20:12:05.411Z,96713.98
2018-04-11T20:14:33.219Z,96705.47
2018-04-11T20:17:00.813Z,96706.80
2018-04-11T20:19:28.403Z,96709.97
2018-04-11T20:21:56.020Z,96702.42
2018-04-11T20:24:23.627Z,96695.94
2018-04-11T20:26:51.250Z,96705.49
2018-04-11T20:29:18.843Z,96697.53
2018-04-11T20:31:46.862Z,96694.69
2018-04-11T20:34:14.471Z,96694.55
2018-04-11T20:36:42.070Z,96696.35
2018-04-11T20:39:09.716Z,96688.96
2018-04-11T20:41:37.327Z,96689.69
2018-04-11T20:44:04.957Z,96687.27
2018-04-11T20:46:32.559Z,96685.97
2018-04-11T20:49:00.410Z,96683.07
2018-04-11T20:51:28.013Z,96680.54
2018-04-11T20:53:55.607Z,96677.01
2018-04-11T20:56:23.222Z,96678.50
2018-04-11T20:58:50.828Z,96675.12
2018-04-11T21:01:18.450Z,96664.28
2018-04-11T21:03:46.060Z,96658.58
2018-04-11T21:06:13.705Z,96660.91
2018-04-11T21:08:41.297Z,96659.64
2018-04-11T21:11:08.936Z,96650.00
2018-04-11T21:13:36.552Z,96642.72
2018-04-11T21:16:04.174Z,96639.81
2018-04-11T21:18:31.795Z,96627.27
2018-04-11T21:20:59.391Z,96619.70
2018-04-11T21:23:27.472Z,96621.74
2018-04-11T21:25:55.072Z,96623.59
2018-04-11T21:28:22.664Z,96620.19
2018-04-11T21:30:50.283Z,96614.31
2018-04-11T21:33:17.899Z,96612.67
2018-04-11T21:35:45.522Z,96609.18
2018-04-11T21:38:13.237Z,96606.50
2018-04-11T21:40:41.112Z,96602.05
2018-04-11T21:43:08.767Z,96598.45
2018-04-11T21:45:36.364Z,96600.52
2018-04-11T21:48:04.011Z,96594.50
2018-04-11T21:50:31.755Z,96593.39
2018-04-11T21:52:59.379Z,96583.95
2018-04-11T21:55:26.983Z,96581.25
2018-04-11T21:57:54.657Z,96575.44
2018-04-11T22:00:22.256Z,96575.61
2018-04-11T22:02:49.870Z,96574.87
2018-04-11T22:05:17.512Z,96568.59
2018-04-11T22:07:45.112Z,96564.78
2018-04-11T22:10:12.734Z,96559.36
2018-04-11T22:12:40.384Z,96560.64
2018-04-11T22:15:08.200Z,96552.52
2018-04-11T22:17:35.783Z,96551.84
2018-04-11T22:20:03.404Z,96547.43
2018-04-11T22:22:31.015Z,96548.71
2018-04-11T22:24:58.631Z,96544.30
2018-04-11T22:27:26.262Z,96542.77
2018-04-11T22:29:53.874Z,96535.21
2018-04-11T22:32:21.506Z,96538.31
2018-04-11T22:34:49.095Z,96537.38
2018-04-11T22:37:16.701Z,96535.78
2018-04-11T22:39:44.328Z,96536.70
2018-04-11T22:42:11.920Z,96538.17
2018-04-11T22:44:39.538Z,96532.82
2018-04-11T22:47:07.146Z,96536.95
2018-04-11T22:49:34.774Z,96533.00
2018-04-11T22:52:02.389Z,96533.00
2018-04-11T22:54:29.991Z,96528.44
2018-04-11T22:56:57.722Z,96529.58
2018-04-11T22:59:25.385Z,96524.73
2018-04-11T23:01:53.006Z,96523.13
2018-04-11T23:04:20.598Z,96523.98
2018-04-11T23:06:48.575Z,96514.05
2018-04-11T23:09:16.171Z,96514.62
2018-04-11T23:11:43.778Z,96516.61
2018-04-11T23:14:11.401Z,96510.27
2018-04-11T23:16:39.009Z,96512.05
2018-04-11T23:19:06.667Z,96503.76
2018-04-11T23:21:34.268Z,96500.59
2018-04-11T23:24:01.943Z,96497.66
2018-04-11T23:26:29.542Z,96496.28
2018-04-11T23:28:57.142Z,96493.78
2018-04-11T23:31:24.754Z,96486.34
2018-04-11T23:33:52.351Z,96491.11
2018-04-11T23:36:19.972Z,96482.99
2018-04-11T23:38:47.564Z,96482.38
2018-04-11T23:41:15.184Z,96482.52
2018-04-11T23:43:42.780Z,96475.91
2018-04-11T23:46:10.560Z,96481.42
2018-04-11T23:48:38.163Z,96481.67
2018-04-11T23:51:05.758Z,96484.55
2018-04-11T23:53:33.383Z,96479.85
2018-04-11T23:56:00.976Z,96484.55
2018-04-11T23:58:28.598Z,96485.41
